Thursday, October 23, 2014, 3:53 AM EDT
Back to Local

KPTW, Pottstown Limerick Airport

Location: Royersford, PA, United States Lat: 40.233
Local Time: 3:53 AM EDT ( 7:53 GMT) Lon: -75.55
Time Zone: US/Eastern Elev: 291 ft

Show me the last for .
Show Decoded

2014-10-23 02:54 METAR KPTW 230654Z AUTO 34011G19KT 10SM OVC038 11/07 A2981 RMK AO2 SLP091
                 T01060067 =
2014-10-23 01:54 METAR KPTW 230554Z AUTO 32013G20KT 10SM FEW042 OVC055 11/07 A2980 RMK AO2 RAE23
                 SLP090 P0001 60008 T01060072 10117 20100 56016 =
2014-10-23 00:54 METAR KPTW 230454Z AUTO 35014G25KT 10SM -RA FEW038 SCT070 OVC085 11/07 A2982 RMK
                 AO2 PK WND 36029/0400 RAB27 SLP095 P0000 T01060072 401330106 =
2014-10-23 00:16 METAR KPTW 230416Z AUTO 34012G22KT 10SM SCT026 OVC046 11/07 A2983 RMK AO2 PK WND
                 36029/0400 T01110072 =
2014-10-22 23:54 METAR KPTW 230354Z AUTO 34012G28KT 10SM BKN027 OVC048 11/07 A2983 RMK AO2 PK WND
                 32028/0345 SLP099 T01110072 =
2014-10-22 23:13 METAR KPTW 230313Z AUTO 33013G21KT 10SM BKN027 BKN033 OVC049 11/07 A2984 RMK AO2
                 T01110072 =
2014-10-22 22:54 METAR KPTW 230254Z AUTO 33013G21KT 10SM FEW025 OVC049 11/08 A2985 RMK AO2 SLP106
                 60007 T01110078 58013 =
2014-10-22 21:54 METAR KPTW 230154Z AUTO 33011G20KT 10SM OVC043 11/08 A2987 RMK AO2 RAE10 SLP113
                 P0000 T01110083 =
2014-10-22 20:54 METAR KPTW 230054Z AUTO 33012KT 6SM RA BR FEW041 BKN055 OVC070 11/09 A2988 RMK
                 AO2 SLP116 P0007 T01060089 =
2014-10-22 19:54 METAR KPTW 222354Z AUTO 34010G16KT 10SM -RA OVC037 11/09 A2989 RMK AO2 SLP119
                 P0001 60008 T01110089 10133 20111 51001 =
2014-10-22 18:54 METAR KPTW 222254Z AUTO 33010KT 10SM -RA OVC035 12/09 A2989 RMK AO2 RAB05 SLP119
                 P0000 T01170089 =
2014-10-22 17:54 METAR KPTW 222154Z AUTO 34010G17KT 10SM OVC031 12/09 A2989 RMK AO2 RAB14E37
                 SLP118 P0000 T01170094 =
2014-10-22 17:05 METAR KPTW 222105Z AUTO 34008KT 10SM BKN030 OVC034 12/10 A2988 RMK AO2 T01220100
                 =
2014-10-22 16:54 METAR KPTW 222054Z AUTO 34010KT 10SM OVC028 12/10 A2989 RMK AO2 RAE36 SLP118
                 P0001 60007 T01220100 56008 =
2014-10-22 14:54 METAR KPTW 221854Z AUTO 01009KT 10SM -RA OVC021 13/09 A2990 RMK AO2 RAB40 SLP122
                 P0001 T01280094 =
2014-10-22 13:54 METAR KPTW 221754Z AUTO 01012G22KT 10SM OVC020 13/09 A2991 RMK AO2 SLP126 60005
                 T01280094 10128 20117 58011 =
2014-10-22 12:54 METAR KPTW 221654Z AUTO 01009KT 10SM OVC019 12/10 A2992 RMK AO2 RAB1559E48
                 SLP131 P0000 T01220100 =
2014-10-22 11:54 METAR KPTW 221554Z AUTO 03009G20KT 10SM OVC018 12/09 A2994 RMK AO2 RAE09B38E47
                 SLP135 P0000 T01220094 =
2014-10-22 11:05 METAR KPTW 221505Z AUTO 02011KT 10SM -RA SCT015 OVC022 12/10 A2994 RMK AO2 P0000
                 T01170100 =
2014-10-22 10:54 METAR KPTW 221454Z AUTO 02010KT 10SM -RA BKN014 BKN024 OVC050 12/10 A2994 RMK
                 AO2 RAB09 SLP137 P0001 60005 T01170100 53007 =
2014-10-22 09:54 METAR KPTW 221354Z AUTO 03012G20KT 10SM OVC014 12/10 A2993 RMK AO2 RAE50 SLP133
                 P0001 T01170100 =
2014-10-22 09:37 METAR KPTW 221337Z AUTO 01009KT 10SM -RA BKN014 OVC080 12/10 A2993 RMK AO2 P0001
                 T01170100 =
2014-10-22 08:54 METAR KPTW 221254Z AUTO 01011G17KT 9SM -RA FEW024 BKN065 OVC080 12/10 A2992 RMK
                 AO2 RAB05 SLP129 P0003 T01220100 =
2014-10-22 08:26 METAR KPTW 221226Z AUTO 02009KT 10SM -RA FEW020 BKN039 OVC070 12/10 A2992 RMK
                 AO2 RAB05 P0001 T01220100 =
2014-10-22 07:54 METAR KPTW 221154Z AUTO 01012G17KT 10SM SCT017 BKN024 OVC033 13/10 A2992 RMK AO2
                 RAB06E50 SLP128 P0000 60000 T01280100 10128 20111 53011 =
2014-10-22 06:54 METAR KPTW 221054Z AUTO 02011KT 10SM OVC013 13/10 A2989 RMK AO2 SLP118 T01280100
                 =
2014-10-22 05:54 METAR KPTW 220954Z AUTO 02008KT 10SM OVC014 13/10 A2989 RMK AO2 SLP119 T01280100
                 =
2014-10-22 04:54 METAR KPTW 220854Z AUTO 02007KT 10SM OVC014 12/09 A2989 RMK AO2 SLP117 T01220094
                 55003 =
2014-10-22 04:24 METAR KPTW 220824Z AUTO 01010KT 10SM BKN014 12/09 A2988 RMK AO2 T01170094 =
2014-10-22 03:54 METAR KPTW 220754Z AUTO 01008KT 10SM BKN017 OVC080 12/09 A2988 RMK AO2 SLP116
                 T01170094 =

Support USWX by starting your Amazon purchase here.